sensor_id;sensor_type;location;lat;lon;timestamp;P1;durP1;ratioP1;P2;durP2;ratioP2
7965;SDS011;4028;43.272;26.932;2023-07-13T00:00:37;8.63;;;7.82;;
7965;SDS011;4028;43.272;26.932;2023-07-13T00:03:03;9.50;;;7.75;;
7965;SDS011;4028;43.272;26.932;2023-07-13T00:05:29;8.00;;;7.20;;
7965;SDS011;4028;43.272;26.932;2023-07-13T00:07:55;8.55;;;7.43;;
7965;SDS011;4028;43.272;26.932;2023-07-13T00:10:21;7.75;;;7.05;;
7965;SDS011;4028;43.272;26.932;2023-07-13T00:12:47;8.60;;;7.57;;
7965;SDS011;4028;43.272;26.932;2023-07-13T00:15:17;9.05;;;7.18;;
7965;SDS011;4028;43.272;26.932;2023-07-13T00:17:51;8.85;;;6.63;;
7965;SDS011;4028;43.272;26.932;2023-07-13T00:20:18;9.80;;;8.10;;
7965;SDS011;4028;43.272;26.932;2023-07-13T00:22:46;8.50;;;7.22;;
7965;SDS011;4028;43.272;26.932;2023-07-13T00:25:12;9.63;;;7.28;;
7965;SDS011;4028;43.272;26.932;2023-07-13T00:27:38;9.55;;;7.65;;
7965;SDS011;4028;43.272;26.932;2023-07-13T00:30:03;8.23;;;7.50;;
7965;SDS011;4028;43.272;26.932;2023-07-13T00:32:30;8.13;;;7.30;;
7965;SDS011;4028;43.272;26.932;2023-07-13T00:34:56;9.40;;;7.40;;
7965;SDS011;4028;43.272;26.932;2023-07-13T00:37:23;8.70;;;7.78;;
7965;SDS011;4028;43.272;26.932;2023-07-13T00:39:48;8.23;;;7.45;;
7965;SDS011;4028;43.272;26.932;2023-07-13T00:42:14;13.55;;;8.07;;
7965;SDS011;4028;43.272;26.932;2023-07-13T00:44:40;8.00;;;7.20;;
7965;SDS011;4028;43.272;26.932;2023-07-13T00:47:05;10.05;;;8.63;;
7965;SDS011;4028;43.272;26.932;2023-07-13T00:49:32;8.00;;;7.15;;
7965;SDS011;4028;43.272;26.932;2023-07-13T00:52:02;8.73;;;7.90;;
7965;SDS011;4028;43.272;26.932;2023-07-13T00:54:32;9.07;;;8.18;;
7965;SDS011;4028;43.272;26.932;2023-07-13T00:57:02;9.95;;;8.25;;
7965;SDS011;4028;43.272;26.932;2023-07-13T00:59:31;9.02;;;8.20;;
7965;SDS011;4028;43.272;26.932;2023-07-13T01:01:57;10.25;;;8.48;;
7965;SDS011;4028;43.272;26.932;2023-07-13T01:04:24;9.02;;;7.53;;
7965;SDS011;4028;43.272;26.932;2023-07-13T01:06:50;8.25;;;7.55;;
7965;SDS011;4028;43.272;26.932;2023-07-13T01:09:16;10.05;;;8.50;;
7965;SDS011;4028;43.272;26.932;2023-07-13T01:11:42;9.40;;;8.43;;
7965;SDS011;4028;43.272;26.932;2023-07-13T01:14:10;11.73;;;8.55;;
7965;SDS011;4028;43.272;26.932;2023-07-13T01:16:35;9.98;;;8.75;;
7965;SDS011;4028;43.272;26.932;2023-07-13T01:19:03;9.88;;;8.45;;
7965;SDS011;4028;43.272;26.932;2023-07-13T01:21:41;9.13;;;8.23;;
7965;SDS011;4028;43.272;26.932;2023-07-13T01:24:08;9.52;;;8.52;;
7965;SDS011;4028;43.272;26.932;2023-07-13T01:26:34;9.40;;;8.40;;
7965;SDS011;4028;43.272;26.932;2023-07-13T01:28:59;9.20;;;8.30;;
7965;SDS011;4028;43.272;26.932;2023-07-13T01:31:25;9.05;;;8.13;;
7965;SDS011;4028;43.272;26.932;2023-07-13T01:33:51;9.80;;;8.80;;
7965;SDS011;4028;43.272;26.932;2023-07-13T01:36:17;9.50;;;8.60;;
7965;SDS011;4028;43.272;26.932;2023-07-13T01:38:42;10.77;;;9.32;;
7965;SDS011;4028;43.272;26.932;2023-07-13T01:41:08;9.70;;;8.52;;
7965;SDS011;4028;43.272;26.932;2023-07-13T01:43:33;13.00;;;8.95;;
7965;SDS011;4028;43.272;26.932;2023-07-13T01:45:59;9.50;;;8.60;;
7965;SDS011;4028;43.272;26.932;2023-07-13T01:48:24;10.98;;;9.05;;
7965;SDS011;4028;43.272;26.932;2023-07-13T01:50:49;9.40;;;7.80;;
7965;SDS011;4028;43.272;26.932;2023-07-13T01:53:15;10.52;;;8.52;;
7965;SDS011;4028;43.272;26.932;2023-07-13T01:55:41;11.43;;;8.13;;
7965;SDS011;4028;43.272;26.932;2023-07-13T01:58:06;9.35;;;8.23;;
7965;SDS011;4028;43.272;26.932;2023-07-13T02:00:32;9.75;;;8.70;;
7965;SDS011;4028;43.272;26.932;2023-07-13T02:02:58;10.38;;;8.95;;
7965;SDS011;4028;43.272;26.932;2023-07-13T02:05:23;9.77;;;8.98;;
7965;SDS011;4028;43.272;26.932;2023-07-13T02:07:49;9.65;;;8.82;;
7965;SDS011;4028;43.272;26.932;2023-07-13T02:10:14;9.55;;;8.65;;
7965;SDS011;4028;43.272;26.932;2023-07-13T02:12:40;12.18;;;9.32;;
7965;SDS011;4028;43.272;26.932;2023-07-13T02:15:07;10.10;;;9.10;;
7965;SDS011;4028;43.272;26.932;2023-07-13T02:17:34;10.50;;;9.45;;
7965;SDS011;4028;43.272;26.932;2023-07-13T02:20:01;11.88;;;10.70;;
7965;SDS011;4028;43.272;26.932;2023-07-13T02:22:28;11.05;;;9.98;;
7965;SDS011;4028;43.272;26.932;2023-07-13T02:24:54;14.88;;;10.63;;
7965;SDS011;4028;43.272;26.932;2023-07-13T02:27:19;17.30;;;11.45;;
7965;SDS011;4028;43.272;26.932;2023-07-13T02:29:44;12.13;;;10.93;;
7965;SDS011;4028;43.272;26.932;2023-07-13T02:32:10;12.80;;;11.50;;
7965;SDS011;4028;43.272;26.932;2023-07-13T02:34:36;13.32;;;11.88;;
7965;SDS011;4028;43.272;26.932;2023-07-13T02:37:01;13.88;;;12.52;;
7965;SDS011;4028;43.272;26.932;2023-07-13T02:39:27;14.27;;;12.90;;
7965;SDS011;4028;43.272;26.932;2023-07-13T02:41:52;14.70;;;13.20;;
7965;SDS011;4028;43.272;26.932;2023-07-13T02:44:18;14.57;;;13.13;;
7965;SDS011;4028;43.272;26.932;2023-07-13T02:46:43;15.05;;;13.50;;
7965;SDS011;4028;43.272;26.932;2023-07-13T02:49:09;14.65;;;12.75;;
7965;SDS011;4028;43.272;26.932;2023-07-13T02:51:35;14.57;;;12.85;;
7965;SDS011;4028;43.272;26.932;2023-07-13T02:54:01;18.65;;;12.55;;
7965;SDS011;4028;43.272;26.932;2023-07-13T02:56:27;14.40;;;11.85;;
7965;SDS011;4028;43.272;26.932;2023-07-13T02:58:54;13.77;;;11.05;;
7965;SDS011;4028;43.272;26.932;2023-07-13T03:01:20;14.30;;;11.10;;
7965;SDS011;4028;43.272;26.932;2023-07-13T03:03:47;15.43;;;10.80;;
7965;SDS011;4028;43.272;26.932;2023-07-13T03:06:14;14.57;;;11.98;;
7965;SDS011;4028;43.272;26.932;2023-07-13T03:08:40;13.43;;;11.05;;
7965;SDS011;4028;43.272;26.932;2023-07-13T03:11:10;14.52;;;13.10;;
7965;SDS011;4028;43.272;26.932;2023-07-13T03:13:38;13.98;;;12.60;;
7965;SDS011;4028;43.272;26.932;2023-07-13T03:16:04;16.90;;;12.55;;
7965;SDS011;4028;43.272;26.932;2023-07-13T03:18:30;17.40;;;12.65;;
7965;SDS011;4028;43.272;26.932;2023-07-13T03:20:56;15.30;;;13.70;;
7965;SDS011;4028;43.272;26.932;2023-07-13T03:23:22;14.70;;;13.25;;
7965;SDS011;4028;43.272;26.932;2023-07-13T03:25:48;21.35;;;13.80;;
7965;SDS011;4028;43.272;26.932;2023-07-13T03:28:14;18.00;;;13.82;;
7965;SDS011;4028;43.272;26.932;2023-07-13T03:30:40;14.38;;;13.00;;
7965;SDS011;4028;43.272;26.932;2023-07-13T03:33:06;15.98;;;13.18;;
7965;SDS011;4028;43.272;26.932;2023-07-13T03:35:32;15.60;;;12.40;;
7965;SDS011;4028;43.272;26.932;2023-07-13T03:37:58;15.63;;;12.60;;
7965;SDS011;4028;43.272;26.932;2023-07-13T03:40:24;15.23;;;12.77;;
7965;SDS011;4028;43.272;26.932;2023-07-13T03:42:51;16.73;;;12.82;;
7965;SDS011;4028;43.272;26.932;2023-07-13T03:45:17;15.70;;;13.32;;
7965;SDS011;4028;43.272;26.932;2023-07-13T03:47:43;15.65;;;12.52;;
7965;SDS011;4028;43.272;26.932;2023-07-13T03:50:08;14.23;;;12.00;;
7965;SDS011;4028;43.272;26.932;2023-07-13T03:52:34;20.92;;;12.75;;
7965;SDS011;4028;43.272;26.932;2023-07-13T03:54:59;14.25;;;12.43;;
7965;SDS011;4028;43.272;26.932;2023-07-13T03:57:25;14.82;;;11.70;;
7965;SDS011;4028;43.272;26.932;2023-07-13T03:59:50;12.38;;;10.98;;
7965;SDS011;4028;43.272;26.932;2023-07-13T04:02:16;12.57;;;11.20;;
7965;SDS011;4028;43.272;26.932;2023-07-13T04:04:42;14.40;;;10.70;;
7965;SDS011;4028;43.272;26.932;2023-07-13T04:07:08;13.05;;;10.10;;
7965;SDS011;4028;43.272;26.932;2023-07-13T04:09:34;14.02;;;10.52;;
7965;SDS011;4028;43.272;26.932;2023-07-13T04:12:00;13.48;;;10.45;;
7965;SDS011;4028;43.272;26.932;2023-07-13T04:14:25;17.30;;;10.45;;
7965;SDS011;4028;43.272;26.932;2023-07-13T04:16:51;13.68;;;11.13;;
7965;SDS011;4028;43.272;26.932;2023-07-13T04:19:16;11.88;;;10.05;;
7965;SDS011;4028;43.272;26.932;2023-07-13T04:21:42;16.67;;;10.57;;
7965;SDS011;4028;43.272;26.932;2023-07-13T04:24:07;11.30;;;10.10;;
7965;SDS011;4028;43.272;26.932;2023-07-13T04:26:33;12.00;;;9.90;;
7965;SDS011;4028;43.272;26.932;2023-07-13T04:29:00;10.55;;;9.45;;
7965;SDS011;4028;43.272;26.932;2023-07-13T04:31:28;10.13;;;8.95;;
7965;SDS011;4028;43.272;26.932;2023-07-13T04:33:54;14.00;;;9.18;;
7965;SDS011;4028;43.272;26.932;2023-07-13T04:36:20;10.93;;;9.60;;
7965;SDS011;4028;43.272;26.932;2023-07-13T04:38:45;9.52;;;8.52;;
7965;SDS011;4028;43.272;26.932;2023-07-13T04:41:12;12.60;;;9.30;;
7965;SDS011;4028;43.272;26.932;2023-07-13T04:43:38;12.15;;;9.38;;
7965;SDS011;4028;43.272;26.932;2023-07-13T04:46:07;10.00;;;8.68;;
7965;SDS011;4028;43.272;26.932;2023-07-13T04:48:36;10.45;;;9.23;;
7965;SDS011;4028;43.272;26.932;2023-07-13T04:51:02;17.08;;;9.85;;
7965;SDS011;4028;43.272;26.932;2023-07-13T04:53:28;10.52;;;9.18;;
7965;SDS011;4028;43.272;26.932;2023-07-13T04:55:54;11.20;;;9.02;;
7965;SDS011;4028;43.272;26.932;2023-07-13T04:58:20;11.75;;;10.07;;
7965;SDS011;4028;43.272;26.932;2023-07-13T05:00:46;14.02;;;9.70;;
7965;SDS011;4028;43.272;26.932;2023-07-13T05:03:12;12.68;;;9.35;;
7965;SDS011;4028;43.272;26.932;2023-07-13T05:05:38;10.88;;;9.75;;
7965;SDS011;4028;43.272;26.932;2023-07-13T05:08:03;11.05;;;9.80;;
7965;SDS011;4028;43.272;26.932;2023-07-13T05:10:29;12.13;;;9.95;;
7965;SDS011;4028;43.272;26.932;2023-07-13T05:12:55;16.23;;;10.73;;
7965;SDS011;4028;43.272;26.932;2023-07-13T05:15:20;10.90;;;9.65;;
7965;SDS011;4028;43.272;26.932;2023-07-13T05:17:47;10.45;;;9.32;;
7965;SDS011;4028;43.272;26.932;2023-07-13T05:20:13;16.25;;;10.38;;
7965;SDS011;4028;43.272;26.932;2023-07-13T05:22:39;11.98;;;10.40;;
7965;SDS011;4028;43.272;26.932;2023-07-13T05:25:05;11.85;;;10.10;;
7965;SDS011;4028;43.272;26.932;2023-07-13T05:27:31;14.90;;;10.40;;
7965;SDS011;4028;43.272;26.932;2023-07-13T05:29:57;14.52;;;10.30;;
7965;SDS011;4028;43.272;26.932;2023-07-13T05:32:23;12.85;;;10.75;;
7965;SDS011;4028;43.272;26.932;2023-07-13T05:34:48;18.50;;;11.05;;
7965;SDS011;4028;43.272;26.932;2023-07-13T05:37:13;14.75;;;11.27;;
7965;SDS011;4028;43.272;26.932;2023-07-13T05:39:39;13.98;;;10.85;;
7965;SDS011;4028;43.272;26.932;2023-07-13T05:42:05;20.23;;;10.90;;
7965;SDS011;4028;43.272;26.932;2023-07-13T05:44:31;14.85;;;10.60;;
7965;SDS011;4028;43.272;26.932;2023-07-13T05:46:56;13.98;;;11.65;;
7965;SDS011;4028;43.272;26.932;2023-07-13T05:49:22;18.30;;;12.00;;
7965;SDS011;4028;43.272;26.932;2023-07-13T05:51:48;15.35;;;11.85;;
7965;SDS011;4028;43.272;26.932;2023-07-13T05:54:14;24.40;;;12.70;;
7965;SDS011;4028;43.272;26.932;2023-07-13T05:56:39;24.23;;;13.27;;
7965;SDS011;4028;43.272;26.932;2023-07-13T05:59:05;27.95;;;13.57;;
7965;SDS011;4028;43.272;26.932;2023-07-13T06:01:30;20.15;;;13.35;;
7965;SDS011;4028;43.272;26.932;2023-07-13T06:03:56;26.25;;;13.18;;
7965;SDS011;4028;43.272;26.932;2023-07-13T06:06:22;31.02;;;13.50;;
7965;SDS011;4028;43.272;26.932;2023-07-13T06:08:47;20.88;;;13.55;;
7965;SDS011;4028;43.272;26.932;2023-07-13T06:11:15;15.65;;;12.82;;
7965;SDS011;4028;43.272;26.932;2023-07-13T06:13:43;15.45;;;13.30;;
7965;SDS011;4028;43.272;26.932;2023-07-13T06:16:09;14.68;;;12.40;;
7965;SDS011;4028;43.272;26.932;2023-07-13T06:18:37;19.42;;;12.23;;
7965;SDS011;4028;43.272;26.932;2023-07-13T06:21:10;17.80;;;11.55;;
7965;SDS011;4028;43.272;26.932;2023-07-13T06:23:37;19.60;;;12.45;;
7965;SDS011;4028;43.272;26.932;2023-07-13T06:26:03;14.88;;;11.98;;
7965;SDS011;4028;43.272;26.932;2023-07-13T06:28:31;14.18;;;11.70;;
7965;SDS011;4028;43.272;26.932;2023-07-13T06:31:00;16.42;;;11.50;;
7965;SDS011;4028;43.272;26.932;2023-07-13T06:33:25;13.35;;;12.05;;
7965;SDS011;4028;43.272;26.932;2023-07-13T06:35:51;13.73;;;12.43;;
7965;SDS011;4028;43.272;26.932;2023-07-13T06:38:18;17.45;;;11.93;;
7965;SDS011;4028;43.272;26.932;2023-07-13T06:40:45;14.10;;;12.48;;
7965;SDS011;4028;43.272;26.932;2023-07-13T06:43:17;13.90;;;12.57;;
7965;SDS011;4028;43.272;26.932;2023-07-13T06:45:47;13.85;;;12.30;;
7965;SDS011;4028;43.272;26.932;2023-07-13T06:48:15;16.63;;;13.07;;
7965;SDS011;4028;43.272;26.932;2023-07-13T06:50:42;14.40;;;12.73;;
7965;SDS011;4028;43.272;26.932;2023-07-13T06:53:23;14.30;;;12.45;;
7965;SDS011;4028;43.272;26.932;2023-07-13T06:55:49;16.20;;;12.80;;
7965;SDS011;4028;43.272;26.932;2023-07-13T06:58:16;14.50;;;12.48;;
7965;SDS011;4028;43.272;26.932;2023-07-13T07:00:43;15.27;;;13.18;;
7965;SDS011;4028;43.272;26.932;2023-07-13T07:03:09;13.10;;;12.00;;
7965;SDS011;4028;43.272;26.932;2023-07-13T07:05:34;15.10;;;13.63;;
7965;SDS011;4028;43.272;26.932;2023-07-13T07:08:00;17.65;;;12.98;;
7965;SDS011;4028;43.272;26.932;2023-07-13T07:10:26;14.82;;;13.32;;
7965;SDS011;4028;43.272;26.932;2023-07-13T07:12:51;16.88;;;13.68;;
7965;SDS011;4028;43.272;26.932;2023-07-13T07:15:18;15.73;;;13.98;;
7965;SDS011;4028;43.272;26.932;2023-07-13T07:17:43;15.15;;;13.40;;
7965;SDS011;4028;43.272;26.932;2023-07-13T07:20:09;15.95;;;13.65;;
7965;SDS011;4028;43.272;26.932;2023-07-13T07:22:35;14.73;;;13.35;;
7965;SDS011;4028;43.272;26.932;2023-07-13T07:25:01;16.05;;;13.23;;
7965;SDS011;4028;43.272;26.932;2023-07-13T07:27:26;15.43;;;13.90;;
7965;SDS011;4028;43.272;26.932;2023-07-13T07:29:52;14.15;;;12.75;;
7965;SDS011;4028;43.272;26.932;2023-07-13T07:32:18;15.88;;;13.80;;
7965;SDS011;4028;43.272;26.932;2023-07-13T07:34:44;14.70;;;13.30;;
7965;SDS011;4028;43.272;26.932;2023-07-13T07:37:10;14.52;;;12.77;;
7965;SDS011;4028;43.272;26.932;2023-07-13T07:39:37;15.60;;;13.73;;
7965;SDS011;4028;43.272;26.932;2023-07-13T07:42:03;14.25;;;12.73;;
7965;SDS011;4028;43.272;26.932;2023-07-13T07:44:30;18.27;;;14.45;;
7965;SDS011;4028;43.272;26.932;2023-07-13T07:46:59;14.18;;;12.98;;
7965;SDS011;4028;43.272;26.932;2023-07-13T07:49:24;14.02;;;12.82;;
7965;SDS011;4028;43.272;26.932;2023-07-13T07:51:50;12.73;;;11.75;;
7965;SDS011;4028;43.272;26.932;2023-07-13T07:54:15;14.23;;;12.93;;
7965;SDS011;4028;43.272;26.932;2023-07-13T07:56:41;15.50;;;12.98;;
7965;SDS011;4028;43.272;26.932;2023-07-13T07:59:07;14.15;;;13.00;;
7965;SDS011;4028;43.272;26.932;2023-07-13T08:01:32;14.40;;;12.88;;
7965;SDS011;4028;43.272;26.932;2023-07-13T08:03:58;14.57;;;13.05;;
7965;SDS011;4028;43.272;26.932;2023-07-13T08:06:23;13.25;;;11.95;;
7965;SDS011;4028;43.272;26.932;2023-07-13T08:08:49;18.73;;;13.05;;
7965;SDS011;4028;43.272;26.932;2023-07-13T08:11:15;14.98;;;13.00;;
7965;SDS011;4028;43.272;26.932;2023-07-13T08:13:41;13.57;;;12.30;;
7965;SDS011;4028;43.272;26.932;2023-07-13T08:16:06;16.40;;;13.07;;
7965;SDS011;4028;43.272;26.932;2023-07-13T08:18:32;13.63;;;12.43;;
7965;SDS011;4028;43.272;26.932;2023-07-13T08:21:02;14.38;;;12.90;;
7965;SDS011;4028;43.272;26.932;2023-07-13T08:23:31;13.80;;;12.27;;
7965;SDS011;4028;43.272;26.932;2023-07-13T08:25:57;14.05;;;12.65;;
7965;SDS011;4028;43.272;26.932;2023-07-13T08:28:23;12.55;;;11.55;;
7965;SDS011;4028;43.272;26.932;2023-07-13T08:30:49;12.93;;;11.18;;
7965;SDS011;4028;43.272;26.932;2023-07-13T08:33:16;13.45;;;12.05;;
7965;SDS011;4028;43.272;26.932;2023-07-13T08:35:45;13.18;;;11.88;;
7965;SDS011;4028;43.272;26.932;2023-07-13T08:38:12;11.93;;;10.43;;
7965;SDS011;4028;43.272;26.932;2023-07-13T08:40:37;17.80;;;11.20;;
7965;SDS011;4028;43.272;26.932;2023-07-13T08:43:04;11.80;;;10.65;;
7965;SDS011;4028;43.272;26.932;2023-07-13T08:45:32;12.85;;;11.55;;
7965;SDS011;4028;43.272;26.932;2023-07-13T08:48:04;12.60;;;11.50;;
7965;SDS011;4028;43.272;26.932;2023-07-13T08:50:41;12.45;;;11.25;;
7965;SDS011;4028;43.272;26.932;2023-07-13T08:53:21;11.93;;;10.80;;
7965;SDS011;4028;43.272;26.932;2023-07-13T08:55:48;14.60;;;8.27;;
7965;SDS011;4028;43.272;26.932;2023-07-13T08:58:22;10.25;;;5.95;;
7965;SDS011;4028;43.272;26.932;2023-07-13T09:03:41;7.35;;;6.57;;
7965;SDS011;4028;43.272;26.932;2023-07-13T09:06:46;8.48;;;6.57;;
7965;SDS011;4028;43.272;26.932;2023-07-13T09:09:43;7.82;;;6.00;;
7965;SDS011;4028;43.272;26.932;2023-07-13T09:15:21;10.43;;;6.25;;
7965;SDS011;4028;43.272;26.932;2023-07-13T09:17:48;12.38;;;7.93;;
7965;SDS011;4028;43.272;26.932;2023-07-13T09:22:43;7.72;;;6.60;;
7965;SDS011;4028;43.272;26.932;2023-07-13T09:28:02;9.20;;;6.03;;
7965;SDS011;4028;43.272;26.932;2023-07-13T09:33:23;34.78;;;8.18;;
7965;SDS011;4028;43.272;26.932;2023-07-13T09:35:50;17.70;;;6.18;;
7965;SDS011;4028;43.272;26.932;2023-07-13T09:38:17;9.50;;;6.32;;
7965;SDS011;4028;43.272;26.932;2023-07-13T09:40:58;9.43;;;5.70;;
7965;SDS011;4028;43.272;26.932;2023-07-13T09:43:24;10.90;;;5.88;;
7965;SDS011;4028;43.272;26.932;2023-07-13T09:45:50;10.02;;;6.22;;
7965;SDS011;4028;43.272;26.932;2023-07-13T09:48:17;10.18;;;6.60;;
7965;SDS011;4028;43.272;26.932;2023-07-13T09:50:43;10.88;;;6.45;;
7965;SDS011;4028;43.272;26.932;2023-07-13T09:53:17;9.68;;;6.30;;
7965;SDS011;4028;43.272;26.932;2023-07-13T09:55:47;9.18;;;6.55;;
7965;SDS011;4028;43.272;26.932;2023-07-13T09:58:15;8.63;;;6.55;;
7965;SDS011;4028;43.272;26.932;2023-07-13T10:00:44;7.55;;;5.47;;
7965;SDS011;4028;43.272;26.932;2023-07-13T10:03:22;9.77;;;6.10;;
7965;SDS011;4028;43.272;26.932;2023-07-13T10:06:01;8.93;;;5.50;;
7965;SDS011;4028;43.272;26.932;2023-07-13T10:08:41;8.85;;;5.75;;
7965;SDS011;4028;43.272;26.932;2023-07-13T10:11:16;7.25;;;5.32;;
7965;SDS011;4028;43.272;26.932;2023-07-13T10:13:48;10.25;;;6.25;;
7965;SDS011;4028;43.272;26.932;2023-07-13T10:16:18;7.78;;;6.55;;
7965;SDS011;4028;43.272;26.932;2023-07-13T10:18:46;8.63;;;5.70;;
7965;SDS011;4028;43.272;26.932;2023-07-13T10:21:17;7.63;;;5.32;;
7965;SDS011;4028;43.272;26.932;2023-07-13T10:23:55;8.73;;;5.53;;
7965;SDS011;4028;43.272;26.932;2023-07-13T10:26:31;9.70;;;6.47;;
7965;SDS011;4028;43.272;26.932;2023-07-13T10:29:01;9.50;;;5.40;;
7965;SDS011;4028;43.272;26.932;2023-07-13T10:31:36;10.63;;;6.28;;
7965;SDS011;4028;43.272;26.932;2023-07-13T10:34:04;10.07;;;6.20;;
7965;SDS011;4028;43.272;26.932;2023-07-13T10:36:32;9.70;;;6.03;;
7965;SDS011;4028;43.272;26.932;2023-07-13T10:39:02;9.90;;;6.50;;
7965;SDS011;4028;43.272;26.932;2023-07-13T10:41:30;8.25;;;6.63;;
7965;SDS011;4028;43.272;26.932;2023-07-13T10:43:58;10.55;;;6.72;;
7965;SDS011;4028;43.272;26.932;2023-07-13T10:46:27;8.35;;;6.72;;
7965;SDS011;4028;43.272;26.932;2023-07-13T10:48:55;13.45;;;7.05;;
7965;SDS011;4028;43.272;26.932;2023-07-13T10:51:27;9.60;;;6.93;;
7965;SDS011;4028;43.272;26.932;2023-07-13T10:54:11;11.38;;;7.68;;
7965;SDS011;4028;43.272;26.932;2023-07-13T10:56:48;9.05;;;6.75;;
7965;SDS011;4028;43.272;26.932;2023-07-13T10:59:23;17.45;;;7.82;;
7965;SDS011;4028;43.272;26.932;2023-07-13T11:01:56;10.32;;;7.05;;
7965;SDS011;4028;43.272;26.932;2023-07-13T11:04:24;10.75;;;7.40;;
7965;SDS011;4028;43.272;26.932;2023-07-13T11:07:06;8.02;;;6.47;;
7965;SDS011;4028;43.272;26.932;2023-07-13T11:09:44;9.35;;;7.68;;
7965;SDS011;4028;43.272;26.932;2023-07-13T11:22:42;9.65;;;6.75;;
7965;SDS011;4028;43.272;26.932;2023-07-13T11:28:14;9.93;;;6.97;;
7965;SDS011;4028;43.272;26.932;2023-07-13T11:36:18;10.50;;;7.30;;
7965;SDS011;4028;43.272;26.932;2023-07-13T11:38:55;9.43;;;6.22;;
7965;SDS011;4028;43.272;26.932;2023-07-13T11:41:45;8.13;;;6.45;;
7965;SDS011;4028;43.272;26.932;2023-07-13T11:44:18;16.33;;;7.43;;
7965;SDS011;4028;43.272;26.932;2023-07-13T11:46:50;11.45;;;6.70;;
7965;SDS011;4028;43.272;26.932;2023-07-13T11:49:22;8.23;;;6.63;;
7965;SDS011;4028;43.272;26.932;2023-07-13T11:51:49;10.68;;;6.72;;
7965;SDS011;4028;43.272;26.932;2023-07-13T11:56:51;8.02;;;6.82;;
7965;SDS011;4028;43.272;26.932;2023-07-13T11:59:18;9.27;;;7.03;;
7965;SDS011;4028;43.272;26.932;2023-07-13T12:01:47;7.82;;;6.82;;
7965;SDS011;4028;43.272;26.932;2023-07-13T12:04:24;10.10;;;7.32;;
7965;SDS011;4028;43.272;26.932;2023-07-13T12:06:58;8.68;;;6.80;;
7965;SDS011;4028;43.272;26.932;2023-07-13T12:09:30;10.48;;;6.78;;
7965;SDS011;4028;43.272;26.932;2023-07-13T12:11:57;8.10;;;6.70;;
7965;SDS011;4028;43.272;26.932;2023-07-13T12:14:26;10.50;;;6.82;;
7965;SDS011;4028;43.272;26.932;2023-07-13T12:16:51;8.77;;;6.40;;
7965;SDS011;4028;43.272;26.932;2023-07-13T12:21:52;10.45;;;6.97;;
7965;SDS011;4028;43.272;26.932;2023-07-13T12:24:21;13.40;;;6.80;;
7965;SDS011;4028;43.272;26.932;2023-07-13T12:26:51;10.18;;;6.45;;
7965;SDS011;4028;43.272;26.932;2023-07-13T12:29:18;10.82;;;6.72;;
7965;SDS011;4028;43.272;26.932;2023-07-13T12:31:45;6.90;;;6.20;;
7965;SDS011;4028;43.272;26.932;2023-07-13T12:34:17;8.02;;;6.50;;
7965;SDS011;4028;43.272;26.932;2023-07-13T12:36:48;8.55;;;6.40;;
7965;SDS011;4028;43.272;26.932;2023-07-13T12:39:35;8.98;;;6.55;;
7965;SDS011;4028;43.272;26.932;2023-07-13T12:44:57;8.90;;;6.28;;
7965;SDS011;4028;43.272;26.932;2023-07-13T12:47:27;7.70;;;6.28;;
7965;SDS011;4028;43.272;26.932;2023-07-13T12:49:54;10.95;;;7.05;;
7965;SDS011;4028;43.272;26.932;2023-07-13T12:52:23;8.38;;;6.50;;
7965;SDS011;4028;43.272;26.932;2023-07-13T12:54:56;9.77;;;6.85;;
7965;SDS011;4028;43.272;26.932;2023-07-13T12:57:24;15.50;;;7.13;;
7965;SDS011;4028;43.272;26.932;2023-07-13T12:59:55;7.03;;;6.43;;
7965;SDS011;4028;43.272;26.932;2023-07-13T13:02:46;6.20;;;5.57;;
7965;SDS011;4028;43.272;26.932;2023-07-13T13:05:15;7.82;;;6.10;;
7965;SDS011;4028;43.272;26.932;2023-07-13T13:07:41;10.75;;;6.57;;
7965;SDS011;4028;43.272;26.932;2023-07-13T13:10:13;9.88;;;6.25;;
7965;SDS011;4028;43.272;26.932;2023-07-13T13:12:39;14.23;;;6.65;;
7965;SDS011;4028;43.272;26.932;2023-07-13T13:15:08;10.45;;;6.15;;
7965;SDS011;4028;43.272;26.932;2023-07-13T13:17:34;7.30;;;6.53;;
7965;SDS011;4028;43.272;26.932;2023-07-13T13:20:00;8.88;;;6.47;;
7965;SDS011;4028;43.272;26.932;2023-07-13T13:22:26;12.15;;;6.70;;
7965;SDS011;4028;43.272;26.932;2023-07-13T13:24:51;11.77;;;6.22;;
7965;SDS011;4028;43.272;26.932;2023-07-13T13:27:21;6.75;;;5.82;;
7965;SDS011;4028;43.272;26.932;2023-07-13T13:29:49;8.00;;;6.57;;
7965;SDS011;4028;43.272;26.932;2023-07-13T13:32:17;8.73;;;6.63;;
7965;SDS011;4028;43.272;26.932;2023-07-13T13:34:43;10.82;;;6.70;;
7965;SDS011;4028;43.272;26.932;2023-07-13T13:37:30;8.02;;;5.82;;
7965;SDS011;4028;43.272;26.932;2023-07-13T13:39:55;12.02;;;6.18;;
7965;SDS011;4028;43.272;26.932;2023-07-13T13:42:20;7.40;;;6.20;;
7965;SDS011;4028;43.272;26.932;2023-07-13T13:44:50;10.20;;;7.03;;
7965;SDS011;4028;43.272;26.932;2023-07-13T13:47:31;6.70;;;6.00;;
7965;SDS011;4028;43.272;26.932;2023-07-13T13:49:58;7.88;;;5.97;;
7965;SDS011;4028;43.272;26.932;2023-07-13T13:52:24;10.50;;;6.60;;
7965;SDS011;4028;43.272;26.932;2023-07-13T13:54:50;12.48;;;6.88;;
7965;SDS011;4028;43.272;26.932;2023-07-13T13:57:21;9.63;;;5.82;;
7965;SDS011;4028;43.272;26.932;2023-07-13T13:59:48;8.95;;;6.05;;
7965;SDS011;4028;43.272;26.932;2023-07-13T14:02:47;12.48;;;6.25;;
7965;SDS011;4028;43.272;26.932;2023-07-13T14:05:09;10.20;;;6.45;;
7965;SDS011;4028;43.272;26.932;2023-07-13T14:07:37;8.70;;;6.43;;
7965;SDS011;4028;43.272;26.932;2023-07-13T14:10:08;8.05;;;6.35;;
7965;SDS011;4028;43.272;26.932;2023-07-13T14:12:41;8.15;;;6.13;;
7965;SDS011;4028;43.272;26.932;2023-07-13T14:17:48;8.05;;;6.30;;
7965;SDS011;4028;43.272;26.932;2023-07-13T14:20:15;8.38;;;6.22;;
7965;SDS011;4028;43.272;26.932;2023-07-13T14:22:41;8.73;;;6.05;;
7965;SDS011;4028;43.272;26.932;2023-07-13T14:25:13;8.68;;;6.00;;
7965;SDS011;4028;43.272;26.932;2023-07-13T14:27:41;7.90;;;5.65;;
7965;SDS011;4028;43.272;26.932;2023-07-13T14:30:14;8.77;;;6.38;;
7965;SDS011;4028;43.272;26.932;2023-07-13T14:32:41;11.88;;;6.30;;
7965;SDS011;4028;43.272;26.932;2023-07-13T14:35:10;8.32;;;6.25;;
7965;SDS011;4028;43.272;26.932;2023-07-13T14:37:39;10.52;;;6.45;;
7965;SDS011;4028;43.272;26.932;2023-07-13T14:40:39;6.97;;;5.95;;
7965;SDS011;4028;43.272;26.932;2023-07-13T14:42:58;8.60;;;6.13;;
7965;SDS011;4028;43.272;26.932;2023-07-13T14:45:23;10.43;;;5.88;;
7965;SDS011;4028;43.272;26.932;2023-07-13T14:47:50;7.50;;;6.03;;
7965;SDS011;4028;43.272;26.932;2023-07-13T14:50:17;8.82;;;6.07;;
7965;SDS011;4028;43.272;26.932;2023-07-13T14:52:45;10.23;;;6.00;;
7965;SDS011;4028;43.272;26.932;2023-07-13T14:55:16;11.52;;;6.18;;
7965;SDS011;4028;43.272;26.932;2023-07-13T14:57:43;11.45;;;6.30;;
7965;SDS011;4028;43.272;26.932;2023-07-13T15:00:18;9.70;;;6.10;;
7965;SDS011;4028;43.272;26.932;2023-07-13T15:02:49;10.50;;;6.85;;
7965;SDS011;4028;43.272;26.932;2023-07-13T15:05:19;11.77;;;6.18;;
7965;SDS011;4028;43.272;26.932;2023-07-13T15:07:48;6.53;;;5.93;;
7965;SDS011;4028;43.272;26.932;2023-07-13T15:10:24;12.00;;;5.93;;
7965;SDS011;4028;43.272;26.932;2023-07-13T15:12:59;12.38;;;6.25;;
7965;SDS011;4028;43.272;26.932;2023-07-13T15:15:29;9.65;;;6.68;;
7965;SDS011;4028;43.272;26.932;2023-07-13T15:17:57;11.88;;;6.63;;
7965;SDS011;4028;43.272;26.932;2023-07-13T15:20:32;9.18;;;5.82;;
7965;SDS011;4028;43.272;26.932;2023-07-13T15:23:01;11.48;;;6.30;;
7965;SDS011;4028;43.272;26.932;2023-07-13T15:25:28;7.40;;;5.05;;
7965;SDS011;4028;43.272;26.932;2023-07-13T15:27:56;12.93;;;6.15;;
7965;SDS011;4028;43.272;26.932;2023-07-13T15:30:22;7.20;;;5.60;;
7965;SDS011;4028;43.272;26.932;2023-07-13T15:32:51;10.88;;;6.15;;
7965;SDS011;4028;43.272;26.932;2023-07-13T15:35:20;14.75;;;6.50;;
7965;SDS011;4028;43.272;26.932;2023-07-13T15:37:48;15.88;;;6.38;;